sensor_id;sensor_type;location;lat;lon;timestamp;P1;durP1;ratioP1;P2;durP2;ratioP2
60060;SDS011;45933;51.336;12.612;2022-10-31T00:01:30;8.10;;;4.45;;
60060;SDS011;45933;51.336;12.612;2022-10-31T00:04:00;11.98;;;4.60;;
60060;SDS011;45933;51.336;12.612;2022-10-31T00:06:26;12.20;;;4.70;;
60060;SDS011;45933;51.336;12.612;2022-10-31T00:08:52;8.55;;;4.80;;
60060;SDS011;45933;51.336;12.612;2022-10-31T00:11:19;7.38;;;3.97;;
60060;SDS011;45933;51.336;12.612;2022-10-31T00:13:45;10.23;;;4.70;;
60060;SDS011;45933;51.336;12.612;2022-10-31T00:16:14;11.95;;;4.28;;
60060;SDS011;45933;51.336;12.612;2022-10-31T00:18:43;10.90;;;4.07;;
60060;SDS011;45933;51.336;12.612;2022-10-31T00:21:08;9.48;;;3.75;;
60060;SDS011;45933;51.336;12.612;2022-10-31T00:23:34;12.55;;;4.32;;
60060;SDS011;45933;51.336;12.612;2022-10-31T00:26:00;10.02;;;4.15;;
60060;SDS011;45933;51.336;12.612;2022-10-31T00:28:27;8.85;;;4.40;;
60060;SDS011;45933;51.336;12.612;2022-10-31T00:30:52;10.35;;;4.65;;
60060;SDS011;45933;51.336;12.612;2022-10-31T00:33:18;7.90;;;5.07;;
60060;SDS011;45933;51.336;12.612;2022-10-31T00:35:48;11.93;;;4.60;;
60060;SDS011;45933;51.336;12.612;2022-10-31T00:38:14;11.18;;;4.40;;
60060;SDS011;45933;51.336;12.612;2022-10-31T00:40:39;10.82;;;5.10;;
60060;SDS011;45933;51.336;12.612;2022-10-31T00:43:05;12.10;;;4.63;;
60060;SDS011;45933;51.336;12.612;2022-10-31T00:45:30;7.78;;;4.07;;
60060;SDS011;45933;51.336;12.612;2022-10-31T00:47:55;9.15;;;4.10;;
60060;SDS011;45933;51.336;12.612;2022-10-31T00:50:21;11.23;;;4.63;;
60060;SDS011;45933;51.336;12.612;2022-10-31T00:52:46;12.30;;;4.25;;
60060;SDS011;45933;51.336;12.612;2022-10-31T00:55:11;10.30;;;5.13;;
60060;SDS011;45933;51.336;12.612;2022-10-31T00:57:37;11.93;;;4.55;;
60060;SDS011;45933;51.336;12.612;2022-10-31T01:00:02;9.50;;;4.65;;
60060;SDS011;45933;51.336;12.612;2022-10-31T01:02:28;11.40;;;4.30;;
60060;SDS011;45933;51.336;12.612;2022-10-31T01:04:54;8.52;;;4.15;;
60060;SDS011;45933;51.336;12.612;2022-10-31T01:07:19;10.23;;;4.50;;
60060;SDS011;45933;51.336;12.612;2022-10-31T01:09:44;10.45;;;4.88;;
60060;SDS011;45933;51.336;12.612;2022-10-31T01:12:09;8.73;;;4.80;;
60060;SDS011;45933;51.336;12.612;2022-10-31T01:14:35;8.90;;;4.80;;
60060;SDS011;45933;51.336;12.612;2022-10-31T01:17:00;11.93;;;4.45;;
60060;SDS011;45933;51.336;12.612;2022-10-31T01:19:25;8.68;;;4.57;;
60060;SDS011;45933;51.336;12.612;2022-10-31T01:21:53;11.23;;;4.80;;
60060;SDS011;45933;51.336;12.612;2022-10-31T01:24:20;7.05;;;3.80;;
60060;SDS011;45933;51.336;12.612;2022-10-31T01:26:45;11.50;;;4.45;;
60060;SDS011;45933;51.336;12.612;2022-10-31T01:29:10;10.75;;;4.50;;
60060;SDS011;45933;51.336;12.612;2022-10-31T01:31:36;9.30;;;4.75;;
60060;SDS011;45933;51.336;12.612;2022-10-31T01:34:03;9.45;;;4.25;;
60060;SDS011;45933;51.336;12.612;2022-10-31T01:36:30;10.82;;;4.53;;
60060;SDS011;45933;51.336;12.612;2022-10-31T01:39:01;8.68;;;4.13;;
60060;SDS011;45933;51.336;12.612;2022-10-31T01:41:36;8.35;;;4.00;;
60060;SDS011;45933;51.336;12.612;2022-10-31T01:46:40;8.05;;;4.47;;
60060;SDS011;45933;51.336;12.612;2022-10-31T01:49:51;9.30;;;4.05;;
60060;SDS011;45933;51.336;12.612;2022-10-31T01:52:03;11.20;;;4.53;;
60060;SDS011;45933;51.336;12.612;2022-10-31T01:54:35;9.65;;;4.63;;
60060;SDS011;45933;51.336;12.612;2022-10-31T01:57:04;7.50;;;4.20;;
60060;SDS011;45933;51.336;12.612;2022-10-31T01:59:33;7.35;;;4.20;;
60060;SDS011;45933;51.336;12.612;2022-10-31T02:02:03;8.90;;;3.90;;
60060;SDS011;45933;51.336;12.612;2022-10-31T02:04:29;10.63;;;4.15;;
60060;SDS011;45933;51.336;12.612;2022-10-31T02:07:17;10.27;;;4.95;;
60060;SDS011;45933;51.336;12.612;2022-10-31T02:09:46;9.88;;;4.65;;
60060;SDS011;45933;51.336;12.612;2022-10-31T02:12:12;9.27;;;4.65;;
60060;SDS011;45933;51.336;12.612;2022-10-31T02:14:38;10.88;;;5.15;;
60060;SDS011;45933;51.336;12.612;2022-10-31T02:17:05;10.43;;;4.20;;
60060;SDS011;45933;51.336;12.612;2022-10-31T02:19:34;7.03;;;4.30;;
60060;SDS011;45933;51.336;12.612;2022-10-31T02:22:38;10.30;;;4.35;;
60060;SDS011;45933;51.336;12.612;2022-10-31T02:33:56;12.85;;;4.60;;
60060;SDS011;45933;51.336;12.612;2022-10-31T02:36:27;12.63;;;4.85;;
60060;SDS011;45933;51.336;12.612;2022-10-31T02:41:36;10.95;;;4.93;;
60060;SDS011;45933;51.336;12.612;2022-10-31T02:47:16;8.05;;;3.80;;
60060;SDS011;45933;51.336;12.612;2022-10-31T02:49:59;9.40;;;4.30;;
60060;SDS011;45933;51.336;12.612;2022-10-31T02:52:32;10.93;;;3.97;;
60060;SDS011;45933;51.336;12.612;2022-10-31T02:57:58;10.23;;;4.17;;
60060;SDS011;45933;51.336;12.612;2022-10-31T03:00:34;6.07;;;3.93;;
60060;SDS011;45933;51.336;12.612;2022-10-31T03:03:23;8.53;;;4.20;;
60060;SDS011;45933;51.336;12.612;2022-10-31T03:06:09;7.90;;;4.23;;
60060;SDS011;45933;51.336;12.612;2022-10-31T03:09:07;11.83;;;5.13;;
60060;SDS011;45933;51.336;12.612;2022-10-31T03:11:45;9.87;;;4.70;;
60060;SDS011;45933;51.336;12.612;2022-10-31T03:14:46;8.17;;;4.53;;
60060;SDS011;45933;51.336;12.612;2022-10-31T03:17:20;8.77;;;4.03;;
60060;SDS011;45933;51.336;12.612;2022-10-31T03:19:51;9.97;;;4.80;;
60060;SDS011;45933;51.336;12.612;2022-10-31T03:22:20;10.63;;;5.30;;
60060;SDS011;45933;51.336;12.612;2022-10-31T03:24:48;9.87;;;4.27;;
60060;SDS011;45933;51.336;12.612;2022-10-31T03:27:18;9.83;;;4.63;;
60060;SDS011;45933;51.336;12.612;2022-10-31T03:29:48;8.20;;;4.65;;
60060;SDS011;45933;51.336;12.612;2022-10-31T03:32:19;9.80;;;4.40;;
60060;SDS011;45933;51.336;12.612;2022-10-31T03:34:51;9.37;;;4.87;;
60060;SDS011;45933;51.336;12.612;2022-10-31T03:37:20;7.47;;;4.13;;
60060;SDS011;45933;51.336;12.612;2022-10-31T03:39:47;7.37;;;4.00;;
60060;SDS011;45933;51.336;12.612;2022-10-31T03:42:15;8.23;;;4.13;;
60060;SDS011;45933;51.336;12.612;2022-10-31T03:44:46;10.17;;;3.87;;
60060;SDS011;45933;51.336;12.612;2022-10-31T03:47:17;8.87;;;4.63;;
60060;SDS011;45933;51.336;12.612;2022-10-31T03:49:43;9.93;;;4.57;;
60060;SDS011;45933;51.336;12.612;2022-10-31T03:54:53;10.30;;;4.70;;
60060;SDS011;45933;51.336;12.612;2022-10-31T03:57:41;13.03;;;5.13;;
60060;SDS011;45933;51.336;12.612;2022-10-31T04:00:13;9.50;;;4.80;;
60060;SDS011;45933;51.336;12.612;2022-10-31T04:02:42;10.80;;;4.90;;
60060;SDS011;45933;51.336;12.612;2022-10-31T04:05:12;8.10;;;4.70;;
60060;SDS011;45933;51.336;12.612;2022-10-31T04:07:41;9.87;;;4.70;;
60060;SDS011;45933;51.336;12.612;2022-10-31T04:10:13;11.40;;;4.80;;
60060;SDS011;45933;51.336;12.612;2022-10-31T04:12:40;6.13;;;4.13;;
60060;SDS011;45933;51.336;12.612;2022-10-31T04:15:09;9.53;;;4.67;;
60060;SDS011;45933;51.336;12.612;2022-10-31T04:17:37;8.40;;;4.17;;
60060;SDS011;45933;51.336;12.612;2022-10-31T04:20:06;10.83;;;4.80;;
60060;SDS011;45933;51.336;12.612;2022-10-31T04:22:32;8.60;;;4.03;;
60060;SDS011;45933;51.336;12.612;2022-10-31T04:24:57;9.60;;;4.57;;
60060;SDS011;45933;51.336;12.612;2022-10-31T04:27:23;11.53;;;4.33;;
60060;SDS011;45933;51.336;12.612;2022-10-31T04:29:48;10.17;;;4.53;;
60060;SDS011;45933;51.336;12.612;2022-10-31T04:32:13;8.40;;;4.30;;
60060;SDS011;45933;51.336;12.612;2022-10-31T04:34:39;11.10;;;4.30;;
60060;SDS011;45933;51.336;12.612;2022-10-31T04:37:04;8.80;;;5.13;;
60060;SDS011;45933;51.336;12.612;2022-10-31T04:39:30;9.23;;;4.97;;
60060;SDS011;45933;51.336;12.612;2022-10-31T04:41:55;10.03;;;4.30;;
60060;SDS011;45933;51.336;12.612;2022-10-31T04:44:20;15.73;;;5.00;;
60060;SDS011;45933;51.336;12.612;2022-10-31T04:46:46;10.07;;;4.20;;
60060;SDS011;45933;51.336;12.612;2022-10-31T04:49:11;6.73;;;4.07;;
60060;SDS011;45933;51.336;12.612;2022-10-31T04:51:36;8.83;;;4.60;;
60060;SDS011;45933;51.336;12.612;2022-10-31T04:54:02;8.07;;;4.33;;
60060;SDS011;45933;51.336;12.612;2022-10-31T04:56:27;8.13;;;4.37;;
60060;SDS011;45933;51.336;12.612;2022-10-31T04:58:53;6.77;;;4.20;;
60060;SDS011;45933;51.336;12.612;2022-10-31T05:01:18;8.37;;;4.53;;
60060;SDS011;45933;51.336;12.612;2022-10-31T05:03:43;7.10;;;4.17;;
60060;SDS011;45933;51.336;12.612;2022-10-31T05:06:09;10.10;;;4.60;;
60060;SDS011;45933;51.336;12.612;2022-10-31T05:08:34;7.40;;;4.50;;
60060;SDS011;45933;51.336;12.612;2022-10-31T05:11:00;7.87;;;4.50;;
60060;SDS011;45933;51.336;12.612;2022-10-31T05:13:26;9.73;;;4.90;;
60060;SDS011;45933;51.336;12.612;2022-10-31T05:15:52;8.53;;;4.73;;
60060;SDS011;45933;51.336;12.612;2022-10-31T05:18:17;8.90;;;4.97;;
60060;SDS011;45933;51.336;12.612;2022-10-31T05:20:43;9.40;;;4.50;;
60060;SDS011;45933;51.336;12.612;2022-10-31T05:23:08;10.33;;;4.63;;
60060;SDS011;45933;51.336;12.612;2022-10-31T05:25:34;11.40;;;4.23;;
60060;SDS011;45933;51.336;12.612;2022-10-31T05:27:59;10.03;;;5.20;;
60060;SDS011;45933;51.336;12.612;2022-10-31T05:30:26;9.93;;;4.50;;
60060;SDS011;45933;51.336;12.612;2022-10-31T05:32:53;8.10;;;4.53;;
60060;SDS011;45933;51.336;12.612;2022-10-31T05:35:20;7.30;;;4.70;;
60060;SDS011;45933;51.336;12.612;2022-10-31T05:37:48;8.37;;;4.30;;
60060;SDS011;45933;51.336;12.612;2022-10-31T05:40:13;7.60;;;4.00;;
60060;SDS011;45933;51.336;12.612;2022-10-31T05:42:41;8.10;;;4.33;;
60060;SDS011;45933;51.336;12.612;2022-10-31T05:45:08;10.83;;;4.57;;
60060;SDS011;45933;51.336;12.612;2022-10-31T05:47:35;8.63;;;5.13;;
60060;SDS011;45933;51.336;12.612;2022-10-31T05:50:00;7.13;;;4.60;;
60060;SDS011;45933;51.336;12.612;2022-10-31T05:52:25;14.83;;;7.70;;
60060;SDS011;45933;51.336;12.612;2022-10-31T05:54:51;9.43;;;4.73;;
60060;SDS011;45933;51.336;12.612;2022-10-31T05:57:16;8.90;;;4.87;;
60060;SDS011;45933;51.336;12.612;2022-10-31T05:59:41;6.00;;;4.40;;
60060;SDS011;45933;51.336;12.612;2022-10-31T06:02:07;10.40;;;5.27;;
60060;SDS011;45933;51.336;12.612;2022-10-31T06:04:32;7.47;;;4.10;;
60060;SDS011;45933;51.336;12.612;2022-10-31T06:06:57;11.37;;;4.33;;
60060;SDS011;45933;51.336;12.612;2022-10-31T06:09:23;11.47;;;5.10;;
60060;SDS011;45933;51.336;12.612;2022-10-31T06:11:48;6.87;;;4.70;;
60060;SDS011;45933;51.336;12.612;2022-10-31T06:14:13;7.93;;;5.00;;
60060;SDS011;45933;51.336;12.612;2022-10-31T06:16:39;9.97;;;5.03;;
60060;SDS011;45933;51.336;12.612;2022-10-31T06:19:04;9.13;;;5.20;;
60060;SDS011;45933;51.336;12.612;2022-10-31T06:21:30;8.87;;;5.00;;
60060;SDS011;45933;51.336;12.612;2022-10-31T06:23:55;9.87;;;4.63;;
60060;SDS011;45933;51.336;12.612;2022-10-31T06:26:20;8.30;;;4.30;;
60060;SDS011;45933;51.336;12.612;2022-10-31T06:28:46;10.73;;;4.53;;
60060;SDS011;45933;51.336;12.612;2022-10-31T06:31:11;8.77;;;4.70;;
60060;SDS011;45933;51.336;12.612;2022-10-31T06:33:36;12.47;;;5.30;;
60060;SDS011;45933;51.336;12.612;2022-10-31T06:36:02;9.47;;;5.37;;
60060;SDS011;45933;51.336;12.612;2022-10-31T06:38:27;11.40;;;4.40;;
60060;SDS011;45933;51.336;12.612;2022-10-31T06:40:53;5.93;;;4.40;;
60060;SDS011;45933;51.336;12.612;2022-10-31T06:43:19;8.93;;;4.23;;
60060;SDS011;45933;51.336;12.612;2022-10-31T06:45:45;11.17;;;4.47;;
60060;SDS011;45933;51.336;12.612;2022-10-31T06:48:11;12.50;;;5.47;;
60060;SDS011;45933;51.336;12.612;2022-10-31T06:50:36;5.53;;;4.17;;
60060;SDS011;45933;51.336;12.612;2022-10-31T06:53:01;8.27;;;4.30;;
60060;SDS011;45933;51.336;12.612;2022-10-31T06:55:27;9.53;;;4.40;;
60060;SDS011;45933;51.336;12.612;2022-10-31T06:57:54;10.23;;;4.77;;
60060;SDS011;45933;51.336;12.612;2022-10-31T07:00:23;10.07;;;4.90;;
60060;SDS011;45933;51.336;12.612;2022-10-31T07:05:21;14.23;;;6.13;;
60060;SDS011;45933;51.336;12.612;2022-10-31T07:07:46;10.17;;;5.20;;
60060;SDS011;45933;51.336;12.612;2022-10-31T07:10:11;9.20;;;5.23;;
60060;SDS011;45933;51.336;12.612;2022-10-31T07:12:37;9.73;;;5.37;;
60060;SDS011;45933;51.336;12.612;2022-10-31T07:15:02;11.73;;;5.30;;
60060;SDS011;45933;51.336;12.612;2022-10-31T07:17:28;12.23;;;5.43;;
60060;SDS011;45933;51.336;12.612;2022-10-31T07:19:54;13.17;;;5.43;;
60060;SDS011;45933;51.336;12.612;2022-10-31T07:22:19;7.87;;;5.30;;
60060;SDS011;45933;51.336;12.612;2022-10-31T07:24:44;12.80;;;5.80;;
60060;SDS011;45933;51.336;12.612;2022-10-31T07:27:09;8.60;;;5.03;;
60060;SDS011;45933;51.336;12.612;2022-10-31T07:29:35;7.38;;;4.90;;
60060;SDS011;45933;51.336;12.612;2022-10-31T07:32:00;12.18;;;5.47;;
60060;SDS011;45933;51.336;12.612;2022-10-31T07:34:26;10.80;;;4.85;;
60060;SDS011;45933;51.336;12.612;2022-10-31T07:36:52;11.02;;;5.75;;
60060;SDS011;45933;51.336;12.612;2022-10-31T07:39:17;9.75;;;5.72;;
60060;SDS011;45933;51.336;12.612;2022-10-31T07:41:42;10.70;;;5.50;;
60060;SDS011;45933;51.336;12.612;2022-10-31T07:44:08;12.93;;;5.85;;
60060;SDS011;45933;51.336;12.612;2022-10-31T07:46:33;9.73;;;5.57;;
60060;SDS011;45933;51.336;12.612;2022-10-31T07:48:59;14.10;;;5.80;;
60060;SDS011;45933;51.336;12.612;2022-10-31T07:51:24;10.20;;;5.53;;
60060;SDS011;45933;51.336;12.612;2022-10-31T07:53:50;11.02;;;5.63;;
60060;SDS011;45933;51.336;12.612;2022-10-31T07:56:15;10.88;;;5.82;;
60060;SDS011;45933;51.336;12.612;2022-10-31T07:58:40;10.85;;;5.80;;
60060;SDS011;45933;51.336;12.612;2022-10-31T08:01:06;10.23;;;5.75;;
60060;SDS011;45933;51.336;12.612;2022-10-31T08:03:31;9.02;;;5.45;;
60060;SDS011;45933;51.336;12.612;2022-10-31T08:05:57;10.85;;;5.60;;
60060;SDS011;45933;51.336;12.612;2022-10-31T08:08:22;12.32;;;5.70;;
60060;SDS011;45933;51.336;12.612;2022-10-31T08:10:49;8.82;;;5.32;;
60060;SDS011;45933;51.336;12.612;2022-10-31T08:13:14;7.95;;;5.55;;
60060;SDS011;45933;51.336;12.612;2022-10-31T08:15:40;8.38;;;5.22;;
60060;SDS011;45933;51.336;12.612;2022-10-31T08:18:10;9.73;;;5.30;;
60060;SDS011;45933;51.336;12.612;2022-10-31T08:20:37;8.05;;;5.05;;
60060;SDS011;45933;51.336;12.612;2022-10-31T08:23:03;10.32;;;5.35;;
60060;SDS011;45933;51.336;12.612;2022-10-31T08:25:31;8.95;;;5.72;;
60060;SDS011;45933;51.336;12.612;2022-10-31T08:27:58;12.35;;;5.88;;
60060;SDS011;45933;51.336;12.612;2022-10-31T08:30:24;12.82;;;6.10;;
60060;SDS011;45933;51.336;12.612;2022-10-31T08:33:01;13.77;;;6.60;;
60060;SDS011;45933;51.336;12.612;2022-10-31T08:35:35;7.95;;;5.47;;
60060;SDS011;45933;51.336;12.612;2022-10-31T08:38:00;9.60;;;5.20;;
60060;SDS011;45933;51.336;12.612;2022-10-31T08:40:27;12.52;;;6.65;;
60060;SDS011;45933;51.336;12.612;2022-10-31T08:43:00;11.10;;;6.20;;
60060;SDS011;45933;51.336;12.612;2022-10-31T08:45:27;10.88;;;6.18;;
60060;SDS011;45933;51.336;12.612;2022-10-31T08:47:57;10.88;;;6.35;;
60060;SDS011;45933;51.336;12.612;2022-10-31T08:50:24;8.65;;;5.90;;
60060;SDS011;45933;51.336;12.612;2022-10-31T08:52:50;10.10;;;6.60;;
60060;SDS011;45933;51.336;12.612;2022-10-31T08:55:15;9.23;;;6.15;;
60060;SDS011;45933;51.336;12.612;2022-10-31T08:57:41;12.98;;;6.63;;
60060;SDS011;45933;51.336;12.612;2022-10-31T09:00:06;13.85;;;6.85;;
60060;SDS011;45933;51.336;12.612;2022-10-31T09:02:32;9.65;;;7.00;;
60060;SDS011;45933;51.336;12.612;2022-10-31T09:04:57;15.07;;;7.82;;
60060;SDS011;45933;51.336;12.612;2022-10-31T09:07:23;12.05;;;8.32;;
60060;SDS011;45933;51.336;12.612;2022-10-31T09:09:48;12.68;;;7.75;;
60060;SDS011;45933;51.336;12.612;2022-10-31T09:12:13;10.07;;;7.70;;
60060;SDS011;45933;51.336;12.612;2022-10-31T09:14:39;15.70;;;7.85;;
60060;SDS011;45933;51.336;12.612;2022-10-31T09:17:04;17.08;;;9.48;;
60060;SDS011;45933;51.336;12.612;2022-10-31T09:19:29;17.02;;;9.40;;
60060;SDS011;45933;51.336;12.612;2022-10-31T09:21:55;11.82;;;8.82;;
60060;SDS011;45933;51.336;12.612;2022-10-31T09:24:20;14.98;;;9.05;;
60060;SDS011;45933;51.336;12.612;2022-10-31T09:26:46;14.25;;;9.30;;
60060;SDS011;45933;51.336;12.612;2022-10-31T09:29:11;13.27;;;9.45;;
60060;SDS011;45933;51.336;12.612;2022-10-31T09:31:36;19.55;;;9.80;;
60060;SDS011;45933;51.336;12.612;2022-10-31T09:34:02;15.18;;;10.85;;
60060;SDS011;45933;51.336;12.612;2022-10-31T09:36:27;19.45;;;11.98;;
60060;SDS011;45933;51.336;12.612;2022-10-31T09:38:52;18.35;;;12.70;;
60060;SDS011;45933;51.336;12.612;2022-10-31T09:43:59;24.85;;;14.27;;
60060;SDS011;45933;51.336;12.612;2022-10-31T09:52:00;24.95;;;15.13;;
60060;SDS011;45933;51.336;12.612;2022-10-31T09:54:32;22.48;;;16.00;;
60060;SDS011;45933;51.336;12.612;2022-10-31T09:56:59;20.88;;;15.32;;
60060;SDS011;45933;51.336;12.612;2022-10-31T09:59:33;19.70;;;15.43;;
60060;SDS011;45933;51.336;12.612;2022-10-31T10:02:02;21.20;;;15.73;;
60060;SDS011;45933;51.336;12.612;2022-10-31T10:04:43;23.20;;;15.00;;
60060;SDS011;45933;51.336;12.612;2022-10-31T10:07:25;22.92;;;16.02;;
60060;SDS011;45933;51.336;12.612;2022-10-31T10:09:53;23.33;;;16.17;;
60060;SDS011;45933;51.336;12.612;2022-10-31T10:17:42;26.85;;;16.50;;
60060;SDS011;45933;51.336;12.612;2022-10-31T10:26:15;23.45;;;16.50;;
60060;SDS011;45933;51.336;12.612;2022-10-31T10:29:29;27.33;;;16.60;;
60060;SDS011;45933;51.336;12.612;2022-10-31T10:31:52;23.83;;;17.30;;
60060;SDS011;45933;51.336;12.612;2022-10-31T10:34:40;22.85;;;17.02;;
60060;SDS011;45933;51.336;12.612;2022-10-31T10:37:23;24.27;;;18.70;;
60060;SDS011;45933;51.336;12.612;2022-10-31T10:39:56;27.52;;;19.52;;
60060;SDS011;45933;51.336;12.612;2022-10-31T10:42:30;30.85;;;19.98;;
60060;SDS011;45933;51.336;12.612;2022-10-31T10:45:18;33.22;;;20.63;;
60060;SDS011;45933;51.336;12.612;2022-10-31T10:48:18;24.88;;;19.52;;
60060;SDS011;45933;51.336;12.612;2022-10-31T10:51:06;25.00;;;20.02;;
60060;SDS011;45933;51.336;12.612;2022-10-31T10:53:57;29.38;;;20.60;;
60060;SDS011;45933;51.336;12.612;2022-10-31T10:59:31;36.53;;;21.58;;
60060;SDS011;45933;51.336;12.612;2022-10-31T11:01:56;28.63;;;20.33;;
60060;SDS011;45933;51.336;12.612;2022-10-31T11:07:01;27.13;;;20.67;;
60060;SDS011;45933;51.336;12.612;2022-10-31T11:09:32;29.75;;;20.25;;
60060;SDS011;45933;51.336;12.612;2022-10-31T11:11:58;27.20;;;21.20;;
60060;SDS011;45933;51.336;12.612;2022-10-31T11:14:25;31.63;;;20.85;;
60060;SDS011;45933;51.336;12.612;2022-10-31T11:16:54;28.80;;;20.13;;
60060;SDS011;45933;51.336;12.612;2022-10-31T11:19:33;25.65;;;19.33;;
60060;SDS011;45933;51.336;12.612;2022-10-31T11:22:08;26.98;;;20.65;;
60060;SDS011;45933;51.336;12.612;2022-10-31T11:24:41;26.98;;;19.70;;
60060;SDS011;45933;51.336;12.612;2022-10-31T11:27:14;29.60;;;19.90;;
60060;SDS011;45933;51.336;12.612;2022-10-31T11:29:41;30.05;;;20.77;;
60060;SDS011;45933;51.336;12.612;2022-10-31T11:32:08;30.25;;;21.05;;
60060;SDS011;45933;51.336;12.612;2022-10-31T11:34:52;27.02;;;20.10;;
60060;SDS011;45933;51.336;12.612;2022-10-31T11:37:23;30.25;;;20.45;;
60060;SDS011;45933;51.336;12.612;2022-10-31T11:39:52;29.50;;;21.75;;
60060;SDS011;45933;51.336;12.612;2022-10-31T11:42:21;24.75;;;19.67;;
60060;SDS011;45933;51.336;12.612;2022-10-31T11:44:48;26.20;;;20.55;;
60060;SDS011;45933;51.336;12.612;2022-10-31T11:47:15;27.00;;;21.00;;
60060;SDS011;45933;51.336;12.612;2022-10-31T11:49:43;26.25;;;20.42;;
60060;SDS011;45933;51.336;12.612;2022-10-31T11:52:18;26.55;;;20.20;;
60060;SDS011;45933;51.336;12.612;2022-10-31T11:54:49;32.33;;;20.65;;
60060;SDS011;45933;51.336;12.612;2022-10-31T11:57:22;28.35;;;20.85;;
60060;SDS011;45933;51.336;12.612;2022-10-31T11:59:53;28.77;;;19.52;;
60060;SDS011;45933;51.336;12.612;2022-10-31T12:02:21;30.00;;;21.02;;
60060;SDS011;45933;51.336;12.612;2022-10-31T12:04:49;26.30;;;20.55;;
60060;SDS011;45933;51.336;12.612;2022-10-31T12:07:36;29.45;;;20.80;;
60060;SDS011;45933;51.336;12.612;2022-10-31T12:10:01;28.85;;;20.67;;
60060;SDS011;45933;51.336;12.612;2022-10-31T12:12:56;33.83;;;20.30;;
60060;SDS011;45933;51.336;12.612;2022-10-31T12:15:39;24.40;;;19.50;;
60060;SDS011;45933;51.336;12.612;2022-10-31T12:19:17;25.30;;;17.85;;
60060;SDS011;45933;51.336;12.612;2022-10-31T12:21:24;27.05;;;19.83;;
60060;SDS011;45933;51.336;12.612;2022-10-31T12:26:44;26.35;;;19.92;;
60060;SDS011;45933;51.336;12.612;2022-10-31T12:29:28;27.73;;;20.23;;
60060;SDS011;45933;51.336;12.612;2022-10-31T12:34:43;26.92;;;19.75;;
60060;SDS011;45933;51.336;12.612;2022-10-31T12:43:20;24.63;;;18.70;;
60060;SDS011;45933;51.336;12.612;2022-10-31T12:45:58;25.95;;;19.30;;
60060;SDS011;45933;51.336;12.612;2022-10-31T12:59:46;27.42;;;17.77;;
60060;SDS011;45933;51.336;12.612;2022-10-31T13:07:58;27.40;;;18.38;;
60060;SDS011;45933;51.336;12.612;2022-10-31T13:10:31;27.25;;;17.83;;
60060;SDS011;45933;51.336;12.612;2022-10-31T13:13:11;30.05;;;18.45;;
60060;SDS011;45933;51.336;12.612;2022-10-31T13:15:50;27.08;;;18.35;;
60060;SDS011;45933;51.336;12.612;2022-10-31T13:18:25;28.25;;;18.65;;
60060;SDS011;45933;51.336;12.612;2022-10-31T13:20:54;25.50;;;17.05;;
60060;SDS011;45933;51.336;12.612;2022-10-31T13:26:22;29.48;;;17.88;;
60060;SDS011;45933;51.336;12.612;2022-10-31T13:29:00;25.33;;;17.08;;
60060;SDS011;45933;51.336;12.612;2022-10-31T13:31:27;21.67;;;16.77;;
60060;SDS011;45933;51.336;12.612;2022-10-31T13:33:53;24.85;;;16.55;;
60060;SDS011;45933;51.336;12.612;2022-10-31T13:38:54;23.60;;;16.10;;
60060;SDS011;45933;51.336;12.612;2022-10-31T13:41:40;25.48;;;16.60;;
60060;SDS011;45933;51.336;12.612;2022-10-31T13:44:20;27.58;;;16.65;;
60060;SDS011;45933;51.336;12.612;2022-10-31T13:46:50;25.52;;;16.52;;
60060;SDS011;45933;51.336;12.612;2022-10-31T13:54:37;33.08;;;20.65;;
60060;SDS011;45933;51.336;12.612;2022-10-31T13:57:16;30.83;;;18.67;;
60060;SDS011;45933;51.336;12.612;2022-10-31T13:59:53;26.70;;;16.02;;
60060;SDS011;45933;51.336;12.612;2022-10-31T14:02:25;27.25;;;18.02;;
60060;SDS011;45933;51.336;12.612;2022-10-31T14:04:55;33.35;;;20.10;;
60060;SDS011;45933;51.336;12.612;2022-10-31T14:07:24;29.20;;;18.38;;
60060;SDS011;45933;51.336;12.612;2022-10-31T14:09:55;25.83;;;17.75;;
60060;SDS011;45933;51.336;12.612;2022-10-31T14:12:24;26.70;;;17.20;;
60060;SDS011;45933;51.336;12.612;2022-10-31T14:14:55;26.15;;;16.30;;
60060;SDS011;45933;51.336;12.612;2022-10-31T14:17:25;31.13;;;17.20;;
60060;SDS011;45933;51.336;12.612;2022-10-31T14:19:59;27.55;;;15.65;;
60060;SDS011;45933;51.336;12.612;2022-10-31T14:22:45;26.55;;;16.30;;
60060;SDS011;45933;51.336;12.612;2022-10-31T14:27:53;24.92;;;15.90;;
60060;SDS011;45933;51.336;12.612;2022-10-31T14:30:20;26.50;;;16.23;;
60060;SDS011;45933;51.336;12.612;2022-10-31T14:32:58;24.00;;;16.15;;
60060;SDS011;45933;51.336;12.612;2022-10-31T14:36:11;25.25;;;15.10;;
60060;SDS011;45933;51.336;12.612;2022-10-31T14:38:54;51.28;;;31.92;;
60060;SDS011;45933;51.336;12.612;2022-10-31T14:47:36;27.65;;;19.15;;
60060;SDS011;45933;51.336;12.612;2022-10-31T14:50:24;31.85;;;19.90;;
60060;SDS011;45933;51.336;12.612;2022-10-31T14:53:30;35.58;;;21.75;;
60060;SDS011;45933;51.336;12.612;2022-10-31T14:55:58;37.63;;;21.85;;
60060;SDS011;45933;51.336;12.612;2022-10-31T14:58:26;32.03;;;21.58;;
60060;SDS011;45933;51.336;12.612;2022-10-31T15:01:00;36.85;;;22.95;;
60060;SDS011;45933;51.336;12.612;2022-10-31T15:06:10;29.92;;;18.05;;
60060;SDS011;45933;51.336;12.612;2022-10-31T15:08:38;27.92;;;18.45;;
60060;SDS011;45933;51.336;12.612;2022-10-31T15:11:24;29.52;;;19.35;;
60060;SDS011;45933;51.336;12.612;2022-10-31T15:13:58;35.97;;;19.77;;
60060;SDS011;45933;51.336;12.612;2022-10-31T15:16:33;29.27;;;19.67;;
60060;SDS011;45933;51.336;12.612;2022-10-31T15:19:22;32.78;;;22.33;;
60060;SDS011;45933;51.336;12.612;2022-10-31T15:21:49;44.42;;;25.35;;
60060;SDS011;45933;51.336;12.612;2022-10-31T15:24:16;46.70;;;28.02;;
60060;SDS011;45933;51.336;12.612;2022-10-31T15:26:45;40.25;;;25.63;;
60060;SDS011;45933;51.336;12.612;2022-10-31T15:29:13;36.55;;;23.00;;
60060;SDS011;45933;51.336;12.612;2022-10-31T15:31:54;36.78;;;21.40;;
60060;SDS011;45933;51.336;12.612;2022-10-31T15:34:26;32.05;;;21.48;;
60060;SDS011;45933;51.336;12.612;2022-10-31T15:37:00;38.50;;;22.67;;
60060;SDS011;45933;51.336;12.612;2022-10-31T15:39:26;43.17;;;26.58;;
60060;SDS011;45933;51.336;12.612;2022-10-31T15:41:52;56.33;;;35.05;;
60060;SDS011;45933;51.336;12.612;2022-10-31T15:44:24;60.10;;;38.92;;
60060;SDS011;45933;51.336;12.612;2022-10-31T15:46:58;63.78;;;38.47;;
60060;SDS011;45933;51.336;12.612;2022-10-31T15:49:27;61.60;;;39.97;;
60060;SDS011;45933;51.336;12.612;2022-10-31T15:51:57;66.80;;;39.00;;
60060;SDS011;45933;51.336;12.612;2022-10-31T15:54:29;56.67;;;36.38;;
60060;SDS011;45933;51.336;12.612;2022-10-31T15:56:55;51.65;;;33.30;;
60060;SDS011;45933;51.336;12.612;2022-10-31T15:59:22;55.38;;;35.20;;
60060;SDS011;45933;51.336;12.612;2022-10-31T16:02:08;53.00;;;35.00;;
60060;SDS011;45933;51.336;12.612;2022-10-31T16:04:36;47.58;;;31.27;;
60060;SDS011;45933;51.336;12.612;2022-10-31T16:07:02;41.92;;;26.42;;
60060;SDS011;45933;51.336;12.612;2022-10-31T16:09:48;36.67;;;25.63;;
60060;SDS011;45933;51.336;12.612;2022-10-31T16:12:24;42.28;;;24.92;;
60060;SDS011;45933;51.336;12.612;2022-10-31T16:14:54;40.17;;;23.80;;
60060;SDS011;45933;51.336;12.612;2022-10-31T16:17:21;42.83;;;23.98;;
60060;SDS011;45933;51.336;12.612;2022-10-31T16:19:54;34.97;;;22.77;;